WetterOnline ( http://www.wetteronline.de )

Wetter aktuell Heiligenstadt

Aktuelles Wetter: Leinefelde (356m)

6-stündlich | Neueste Meldungen
Ortszeit Temperatur Wetter
Sa, 19.01. 7:00 -5.0° C leicht bewölkt
Sa, 19.01. 1:00 -4.4° C fast wolkenlos
Fr, 18.01. 19:00 -3.4° C wolkenlos
Fr, 18.01. 13:00 -0.2° C fast wolkenlos
Fr, 18.01. 7:00 -2.3° C wolkig
Fr, 18.01. 1:00 -0.1° C bedeckt
Do, 17.01. 19:00 1.2° C leichter Schneefall
Do, 17.01. 13:00 4.8° C wolkig
Ortszeit Temperatur Wetter
Sa, 19.01. 10:30 -3.6° C wolkenlos
Sa, 19.01. 10:20 -3.6° C wolkenlos
Sa, 19.01. 10:10 -4.1° C wolkenlos
Sa, 19.01. 10:00 -4.9° C leicht bewölkt
Sa, 19.01. 9:50 -4.9° C leicht bewölkt
Sa, 19.01. 9:40 -5.0° C wolkig
Sa, 19.01. 9:30 -5.2° C wolkenlos
Sa, 19.01. 9:00 -5.3° C fast wolkenlos
Sa, 19.01. 8:30 -5.6° C wolkig
Sa, 19.01. 8:00 -5.6° C wolkig
Sa, 19.01. 7:30 -5.3° C bewölkt
Ortszeit Relative Feuchte Sichtweite
Sa, 19.01. 7:00 85% 45 km
Sa, 19.01. 1:00 87% 35 km
Fr, 18.01. 19:00 87% 40 km
Fr, 18.01. 13:00 72% 50 km
Fr, 18.01. 7:00 79% 60 km
Fr, 18.01. 1:00 86% 35 km
Do, 17.01. 19:00 91% 4.9 km
Do, 17.01. 13:00 73% >70 km
Ortszeit Relative Feuchte Sichtweite
Sa, 19.01. 10:30 79% 30 km
Sa, 19.01. 10:20 79% -
Sa, 19.01. 10:10 82% -
Sa, 19.01. 10:00 83% 30 km
Sa, 19.01. 9:50 83% -
Sa, 19.01. 9:40 84% -
Sa, 19.01. 9:30 84% 28 km
Sa, 19.01. 9:00 86% 35 km
Sa, 19.01. 8:30 88% 30 km
Sa, 19.01. 8:00 87% 40 km
Sa, 19.01. 7:30 86% 40 km
Ortszeit Niederschlagsmenge Niederschlagsart
Sa, 19.01. 7:00 0.0 l/m2 in 12 Std. -
Sa, 19.01. 1:00 0.0 l/m2 in 6 Std. -
Fr, 18.01. 19:00 0.0 l/m2 in 12 Std. -
Fr, 18.01. 13:00 0.0 l/m2 in 6 Std. -
Fr, 18.01. 7:00 1 l/m2 in 12 Std. Schnee
Fr, 18.01. 1:00 0.9 l/m2 in 6 Std. Schnee
Do, 17.01. 19:00 2 l/m2 in 12 Std. Schnee, Regen
Do, 17.01. 13:00 0.1 l/m2 in 6 Std. Regen
Ortszeit Niederschlagsmenge Niederschlagsart
Sa, 19.01. 10:30 0.0 l/m2 in 1 Std. -
Sa, 19.01. 10:20 keine Meldung -
Sa, 19.01. 10:10 keine Meldung -
Sa, 19.01. 10:00 0.0 l/m2 in 1 Std. -
Sa, 19.01. 9:50 keine Meldung -
Sa, 19.01. 9:40 keine Meldung -
Sa, 19.01. 9:30 0.0 l/m2 in 1 Std. -
Sa, 19.01. 9:00 0.0 l/m2 in 1 Std. -
Sa, 19.01. 8:30 0.0 l/m2 in 1 Std. -
Sa, 19.01. 8:00 0.0 l/m2 in 1 Std. -
Sa, 19.01. 7:30 0.0 l/m2 in 1 Std. -
Ortszeit Stärke Spitze Richtung
km/h Bft. km/h Grad Sektor
Sa, 19.01. 7:00 4 1 11 160° S
Sa, 19.01. 1:00 2 1 9 40° NO
Fr, 18.01. 19:00 0 0 22 - -
Fr, 18.01. 13:00 11 2 33 250° W
Fr, 18.01. 7:00 13 3 41 290° W
Fr, 18.01. 1:00 15 3 48 270° W
Do, 17.01. 19:00 22 4 50 270° W
Do, 17.01. 13:00 22 4 40 240° SW
Ortszeit Stärke Spitze Richtung
km/h Bft. km/h Grad Sektor
Sa, 19.01. 10:30 4 1 7 100° O
Sa, 19.01. 10:20 4 1 - 100° O
Sa, 19.01. 10:10 4 1 - 70° O
Sa, 19.01. 10:00 4 1 7 50° NO
Sa, 19.01. 9:50 4 1 - 50° NO
Sa, 19.01. 9:40 4 1 - 60° NO
Sa, 19.01. 9:30 4 1 7 80° O
Sa, 19.01. 9:00 4 1 7 30° NO
Sa, 19.01. 8:30 4 1 7 100° O
Sa, 19.01. 8:00 4 1 7 40° NO
Sa, 19.01. 7:30 4 1 7 130° SO
Ortszeit Untergrenze Bedeckung Gattung
total tief tief mittel hoch
Sa, 19.01. 7:00 4500 m 4/8 4/8 - - -
Sa, 19.01. 1:00 8400 m 1/8 0/8 - - -
Fr, 18.01. 19:00 - 0/8 0/8 - - -
Fr, 18.01. 13:00 12000 m 1/8 0/8 - - -
Fr, 18.01. 7:00 570 m 6/8 6/8 - - -
Fr, 18.01. 1:00 450 m 8/8 8/8 - - -
Do, 17.01. 19:00 270 m 8/8 8/8 - - -
Do, 17.01. 13:00 660 m 7/8 2/8 - - -
Ortszeit Bedeckungsgrad in Achtel und Wolkenuntergrenze
Sa, 19.01. 10:30 keine Wolken
Sa, 19.01. 10:20 keine Wolken
Sa, 19.01. 10:10 keine Wolken
Sa, 19.01. 10:00 3(5700m)
Sa, 19.01. 9:50 3(5700m)
Sa, 19.01. 9:40 5(5700m)
Sa, 19.01. 9:30 3(6000m)
Sa, 19.01. 9:00 1(4500m)
Sa, 19.01. 8:30 1(3900m) 6(4800m)
Sa, 19.01. 8:00 6(4200m)
Sa, 19.01. 7:30 1(3900m) 7(4500m)
Ortszeit Luftdruck NN (hPa) Tendenz (hPa in 3 Std.)
Sa, 19.01. 7:00 1021 - 0,7
Sa, 19.01. 1:00 1022 + 0,1
Fr, 18.01. 19:00 1022 + 0,4
Fr, 18.01. 13:00 1020 + 0,8
Fr, 18.01. 7:00 1017 + 3,3
Fr, 18.01. 1:00 1010 + 2,5
Do, 17.01. 19:00 1004 + 3,8
Do, 17.01. 13:00 1001 - 1,2
Ortszeit Luftdruck NN (hPa) Tendenz (hPa in 3 Std.)
Sa, 19.01. 10:30 1021 + 0,1
Sa, 19.01. 10:20 1021 keine Meldung
Sa, 19.01. 10:10 1021 keine Meldung
Sa, 19.01. 10:00 1021 + 0,2
Sa, 19.01. 9:50 1021 keine Meldung
Sa, 19.01. 9:40 1021 keine Meldung
Sa, 19.01. 9:30 1021 + 0,2
Sa, 19.01. 9:00 1021 + 0,2
Sa, 19.01. 8:30 1021 0,0
Sa, 19.01. 8:00 1021 - 0,2
Sa, 19.01. 7:30 1021 - 0,3
Ortszeit Schneehöhe (cm)
Sa, 19.01. 7:00 0
Sa, 19.01. 1:00 0
Fr, 18.01. 19:00 0
Fr, 18.01. 13:00 1
Fr, 18.01. 7:00 1
Fr, 18.01. 1:00 1
Do, 17.01. 19:00 0
Do, 17.01. 13:00 0
Ortszeit Schneehöhe (cm)
Sa, 19.01. 10:30 0
Sa, 19.01. 10:20 0
Sa, 19.01. 10:10 0
Sa, 19.01. 10:00 0
Sa, 19.01. 9:50 0
Sa, 19.01. 9:40 0
Sa, 19.01. 9:30 0
Sa, 19.01. 9:00 0
Sa, 19.01. 8:30 0
Sa, 19.01. 8:00 0
Sa, 19.01. 7:30 0
Link zu dieser Seite / Seite empfehlen

Das Wetter in ...